Time;durP1;ratioP1;P1;durP2;ratioP2;P2;SDS_P1;SDS_P2;PMS_P1;PMS_P2;Temp;Humidity;BMP_temperature;BMP_pressure;BME280_temperature;BME280_humidity;BME280_pressure;Samples;Min_cycle;Max_cycle;Signal;HPM_P1;HPM_P2
2023/08/05 00:01:19;;;;;;;4.80;2.47;;;16.40;99.90;;;;;;4861989;29;20128;-51
2023/08/05 00:03:46;;;;;;;4.60;2.50;;;16.40;99.90;;;;;;4862062;29;20104;-54
2023/08/05 00:06:13;;;;;;;6.97;2.72;;;16.40;99.90;;;;;;4861622;29;20045;-57
2023/08/05 00:08:43;;;;;;;7.10;2.50;;;16.40;99.90;;;;;;4861708;29;20494;-51
2023/08/05 00:11:10;;;;;;;5.93;2.63;;;16.30;99.90;;;;;;4861502;29;20125;-54
2023/08/05 00:13:37;;;;;;;5.15;2.90;;;16.30;99.90;;;;;;4862123;29;20053;-51
2023/08/05 00:16:06;;;;;;;7.82;2.50;;;16.30;99.90;;;;;;4861738;29;20052;-53
2023/08/05 00:18:33;;;;;;;5.03;2.65;;;16.30;99.90;;;;;;4860386;29;20052;-56
2023/08/05 00:21:00;;;;;;;5.20;2.50;;;16.30;99.90;;;;;;4861401;29;20053;-53
2023/08/05 00:23:26;;;;;;;6.18;3.10;;;16.20;99.90;;;;;;4861826;29;20056;-56
2023/08/05 00:25:53;;;;;;;8.20;3.20;;;16.20;99.90;;;;;;4861321;29;20458;-56
2023/08/05 00:28:20;;;;;;;6.68;2.80;;;16.20;99.90;;;;;;4861633;29;20058;-50
2023/08/05 00:30:47;;;;;;;5.95;2.75;;;16.20;99.90;;;;;;4861375;29;20054;-55
2023/08/05 00:33:13;;;;;;;8.00;3.40;;;16.20;99.90;;;;;;4861596;29;20046;-57
2023/08/05 00:35:40;;;;;;;6.50;3.30;;;16.20;99.90;;;;;;4860322;29;20092;-58
2023/08/05 00:38:07;;;;;;;7.13;2.95;;;16.20;99.90;;;;;;4860010;29;20051;-57
2023/08/05 00:40:34;;;;;;;10.55;3.83;;;16.20;99.90;;;;;;4875242;29;20088;-57
2023/08/05 00:43:01;;;;;;;8.73;3.67;;;16.20;99.90;;;;;;4861252;29;20052;-57
2023/08/05 00:45:28;;;;;;;10.88;3.08;;;16.20;99.90;;;;;;4861739;29;20042;-57
2023/08/05 00:47:55;;;;;;;8.95;3.55;;;16.20;99.90;;;;;;4861107;29;20426;-55
2023/08/05 00:50:22;;;;;;;5.60;3.30;;;16.20;99.90;;;;;;4861279;29;20511;-56
2023/08/05 00:52:49;;;;;;;8.30;3.40;;;16.20;99.90;;;;;;4861330;29;20049;-54
2023/08/05 00:55:16;;;;;;;8.55;3.33;;;16.20;99.90;;;;;;4860938;29;20219;-55
2023/08/05 00:57:42;;;;;;;6.43;3.03;;;16.20;99.90;;;;;;4860907;29;20136;-55
2023/08/05 01:00:09;;;;;;;9.32;3.00;;;16.20;99.90;;;;;;4861367;29;20041;-57
2023/08/05 01:02:36;;;;;;;4.47;2.90;;;16.20;99.90;;;;;;4861317;29;20049;-59
2023/08/05 01:05:03;;;;;;;6.22;3.20;;;16.20;99.90;;;;;;4875120;29;20049;-57
2023/08/05 01:07:30;;;;;;;6.88;3.70;;;16.20;99.90;;;;;;4860192;29;20049;-56
2023/08/05 01:09:56;;;;;;;7.18;3.35;;;16.20;99.90;;;;;;4860777;29;20061;-53
2023/08/05 01:12:23;;;;;;;6.45;3.22;;;16.20;99.90;;;;;;4859803;29;20049;-53
2023/08/05 01:14:50;;;;;;;8.82;3.20;;;16.20;99.90;;;;;;4860610;29;20045;-54
2023/08/05 01:17:17;;;;;;;9.75;3.72;;;16.20;99.90;;;;;;4861269;29;20045;-56
2023/08/05 01:19:44;;;;;;;7.70;4.00;;;16.20;99.90;;;;;;4859427;29;20053;-50
2023/08/05 01:22:10;;;;;;;6.32;3.22;;;16.20;99.90;;;;;;4859079;29;20458;-55
2023/08/05 01:24:37;;;;;;;7.13;3.15;;;16.20;99.90;;;;;;4859377;29;20074;-54
2023/08/05 01:27:04;;;;;;;6.43;3.30;;;16.20;99.90;;;;;;4860819;29;20047;-57
2023/08/05 01:29:32;;;;;;;7.53;3.53;;;16.10;99.90;;;;;;4875315;29;20049;-54
2023/08/05 01:31:59;;;;;;;7.97;3.55;;;16.10;99.90;;;;;;4861131;29;20132;-53
2023/08/05 01:34:25;;;;;;;7.15;3.67;;;16.10;99.90;;;;;;4875527;29;20114;-55
2023/08/05 01:36:54;;;;;;;8.10;3.47;;;16.00;99.90;;;;;;4859394;29;20359;-55
2023/08/05 01:39:20;;;;;;;7.20;3.60;;;16.00;99.90;;;;;;4860852;29;20053;-56
2023/08/05 01:41:47;;;;;;;6.88;3.78;;;16.00;99.90;;;;;;4860443;29;20067;-53
2023/08/05 01:44:14;;;;;;;10.05;3.63;;;16.00;99.90;;;;;;4874772;29;20077;-52
2023/08/05 01:46:41;;;;;;;7.53;3.88;;;16.00;99.90;;;;;;4860676;29;20044;-54
2023/08/05 01:49:08;;;;;;;7.30;3.40;;;16.00;99.90;;;;;;4859421;29;20042;-54
2023/08/05 01:51:34;;;;;;;8.32;3.75;;;15.90;99.90;;;;;;4860801;29;20045;-52
2023/08/05 01:54:01;;;;;;;9.52;3.80;;;15.90;99.90;;;;;;4860596;29;20062;-54
2023/08/05 01:56:28;;;;;;;8.30;3.78;;;16.00;99.90;;;;;;4874958;29;20486;-55
2023/08/05 01:58:55;;;;;;;5.88;3.90;;;15.90;99.90;;;;;;4859703;29;20140;-52
2023/08/05 02:01:22;;;;;;;7.03;3.88;;;15.90;99.90;;;;;;4874417;29;20069;-56
2023/08/05 02:03:49;;;;;;;6.85;3.80;;;15.90;99.90;;;;;;4860498;29;20121;-57
2023/08/05 02:06:16;;;;;;;7.75;4.45;;;15.80;99.90;;;;;;4874940;29;20102;-56
2023/08/05 02:08:43;;;;;;;7.07;4.20;;;15.80;99.90;;;;;;4859422;29;20050;-54
2023/08/05 02:11:10;;;;;;;7.75;3.92;;;15.90;99.90;;;;;;4859454;29;20378;-53
2023/08/05 02:13:37;;;;;;;7.35;3.92;;;15.90;99.90;;;;;;4874704;29;20067;-54
2023/08/05 02:16:08;;;;;;;9.60;4.35;;;15.80;99.90;;;;;;4875049;29;20069;-57
2023/08/05 02:18:35;;;;;;;10.05;4.07;;;15.80;99.90;;;;;;4859146;29;20049;-55
2023/08/05 02:21:02;;;;;;;9.82;4.72;;;15.80;99.90;;;;;;4863798;29;20042;-54
2023/08/05 02:23:29;;;;;;;10.88;4.50;;;15.80;99.90;;;;;;4863696;29;20114;-57
2023/08/05 02:25:56;;;;;;;10.98;5.45;;;15.80;99.90;;;;;;4863426;29;20124;-52
2023/08/05 02:28:23;;;;;;;10.00;4.97;;;15.80;99.90;;;;;;4862899;29;20042;-51
2023/08/05 02:30:50;;;;;;;8.30;5.00;;;15.80;99.90;;;;;;4863968;29;20041;-58
2023/08/05 02:33:17;;;;;;;8.95;5.05;;;15.80;99.90;;;;;;4877656;29;20067;-53
2023/08/05 02:35:43;;;;;;;9.48;5.07;;;15.80;99.90;;;;;;4863628;29;20048;-56
2023/08/05 02:38:10;;;;;;;9.82;4.88;;;15.80;99.90;;;;;;4862240;29;20481;-55
2023/08/05 02:40:37;;;;;;;12.10;5.70;;;15.80;99.90;;;;;;4877412;29;20054;-52
2023/08/05 02:43:04;;;;;;;10.70;5.25;;;15.80;99.90;;;;;;4862498;29;20499;-57
2023/08/05 02:45:30;;;;;;;8.80;5.32;;;15.80;99.90;;;;;;4863689;29;20125;-57
2023/08/05 02:47:57;;;;;;;8.30;4.70;;;15.80;99.90;;;;;;4877615;29;20545;-56
2023/08/05 02:50:24;;;;;;;10.45;5.57;;;15.80;99.90;;;;;;4862227;29;20053;-52
2023/08/05 02:52:51;;;;;;;10.70;5.63;;;15.80;99.90;;;;;;4863205;29;20050;-56
2023/08/05 02:55:18;;;;;;;9.80;5.78;;;15.80;99.90;;;;;;4863163;29;20492;-54
2023/08/05 02:57:44;;;;;;;10.23;5.50;;;15.80;99.90;;;;;;4863146;29;20072;-53
2023/08/05 03:00:12;;;;;;;10.50;5.68;;;15.80;99.90;;;;;;4877694;29;20077;-56
2023/08/05 03:02:38;;;;;;;9.40;5.60;;;15.80;99.90;;;;;;4863354;29;20045;-55
2023/08/05 03:05:05;;;;;;;12.75;5.32;;;15.80;99.90;;;;;;4861345;29;20041;-54
2023/08/05 03:07:32;;;;;;;10.23;5.65;;;15.80;99.90;;;;;;4876864;29;20497;-56
2023/08/05 03:09:59;;;;;;;8.55;5.35;;;15.80;99.90;;;;;;4862607;29;20046;-54
2023/08/05 03:12:27;;;;;;;9.73;5.32;;;15.80;99.90;;;;;;4877140;29;20085;-54
2023/08/05 03:14:54;;;;;;;9.43;5.50;;;15.70;99.90;;;;;;4877096;29;20049;-56
2023/08/05 03:17:21;;;;;;;8.40;4.90;;;15.70;99.90;;;;;;4862700;29;20053;-55
2023/08/05 03:19:50;;;;;;;10.93;5.63;;;15.70;99.90;;;;;;4876801;29;20382;-51
2023/08/05 03:22:16;;;;;;;11.35;5.72;;;15.70;99.90;;;;;;4876878;29;20132;-54
2023/08/05 03:24:45;;;;;;;10.25;6.05;;;15.70;99.90;;;;;;4876716;29;20049;-53
2023/08/05 03:27:11;;;;;;;11.00;5.97;;;15.70;99.90;;;;;;4845672;29;20053;-54
2023/08/05 03:29:41;;;;;;;11.45;5.88;;;15.70;99.90;;;;;;4861058;29;20049;-55
2023/08/05 03:32:10;;;;;;;9.90;5.63;;;15.70;99.90;;;;;;4876021;29;20557;-57
2023/08/05 03:34:37;;;;;;;9.20;6.68;;;15.70;99.90;;;;;;4862523;29;20080;-55
2023/08/05 03:37:04;;;;;;;12.23;6.45;;;15.60;99.90;;;;;;4862896;29;20091;-56
2023/08/05 03:39:31;;;;;;;12.80;6.40;;;15.60;99.90;;;;;;4876599;29;20434;-54
2023/08/05 03:41:58;;;;;;;15.00;6.93;;;15.50;99.90;;;;;;4876761;29;20410;-57
2023/08/05 03:44:25;;;;;;;10.85;6.78;;;15.50;99.90;;;;;;4876629;29;20080;-56
2023/08/05 03:46:52;;;;;;;9.93;6.82;;;15.50;99.90;;;;;;4862211;29;20052;-53
2023/08/05 03:49:19;;;;;;;8.85;6.45;;;15.40;99.90;;;;;;4862497;29;20125;-50
2023/08/05 03:51:46;;;;;;;11.18;6.55;;;15.40;99.90;;;;;;4862387;29;20048;-56
2023/08/05 03:54:13;;;;;;;13.80;6.85;;;15.40;99.90;;;;;;4876253;29;20446;-52
2023/08/05 03:56:40;;;;;;;16.10;7.13;;;15.40;99.90;;;;;;4860567;29;20140;-55
2023/08/05 03:59:06;;;;;;;15.32;6.90;;;15.30;99.90;;;;;;4862100;29;20042;-56
2023/08/05 04:01:34;;;;;;;9.93;6.80;;;15.40;99.90;;;;;;4876182;29;20132;-55
2023/08/05 04:04:02;;;;;;;11.10;6.95;;;15.30;99.90;;;;;;4875802;29;20055;-52
2023/08/05 04:06:29;;;;;;;13.57;6.65;;;15.30;99.90;;;;;;4860822;29;20394;-54
2023/08/05 04:08:56;;;;;;;10.90;7.22;;;15.30;99.90;;;;;;4862315;29;20038;-58
2023/08/05 04:11:23;;;;;;;9.68;6.70;;;15.30;99.90;;;;;;4861792;29;20049;-58
2023/08/05 04:13:52;;;;;;;10.43;6.70;;;15.20;99.90;;;;;;4860369;29;20053;-54
2023/08/05 04:16:19;;;;;;;10.38;7.05;;;15.20;99.90;;;;;;4860400;29;20053;-53
2023/08/05 04:18:48;;;;;;;12.88;7.50;;;15.20;99.90;;;;;;4875572;29;20149;-56
2023/08/05 04:21:16;;;;;;;12.95;7.65;;;15.20;99.90;;;;;;4861460;29;20110;-53
2023/08/05 04:23:43;;;;;;;12.95;7.55;;;15.10;99.90;;;;;;4861553;29;20034;-56
2023/08/05 04:26:10;;;;;;;14.60;7.97;;;15.10;99.90;;;;;;4861523;29;20042;-53
2023/08/05 04:28:37;;;;;;;11.45;7.25;;;15.10;99.90;;;;;;4861446;29;20132;-54
2023/08/05 04:31:03;;;;;;;14.15;7.28;;;15.10;99.90;;;;;;4861345;29;20500;-58
2023/08/05 04:33:32;;;;;;;12.77;7.15;;;15.10;99.90;;;;;;4861825;29;20136;-56
2023/08/05 04:35:59;;;;;;;14.85;7.85;;;15.10;99.90;;;;;;4861272;29;20124;-55
2023/08/05 04:38:26;;;;;;;10.43;6.95;;;15.10;99.90;;;;;;4861761;29;20061;-57
2023/08/05 04:40:53;;;;;;;10.57;7.13;;;15.10;99.90;;;;;;4861463;29;20045;-52
2023/08/05 04:43:19;;;;;;;10.65;7.35;;;15.10;99.90;;;;;;4860437;29;20394;-57
2023/08/05 04:45:46;;;;;;;10.85;7.40;;;15.10;99.90;;;;;;4861037;29;20046;-56
2023/08/05 04:48:13;;;;;;;12.63;7.35;;;15.10;99.90;;;;;;4859779;29;20053;-54
2023/08/05 04:50:40;;;;;;;10.68;7.13;;;15.10;99.90;;;;;;4859762;29;20042;-51
2023/08/05 04:53:07;;;;;;;12.52;7.53;;;15.10;99.90;;;;;;4861178;29;20046;-52
2023/08/05 04:55:33;;;;;;;13.20;7.63;;;15.10;99.90;;;;;;4861365;29;20049;-52
2023/08/05 04:58:00;;;;;;;12.60;8.27;;;15.00;99.90;;;;;;4861162;29;20045;-51
2023/08/05 05:00:27;;;;;;;11.02;7.75;;;15.00;99.90;;;;;;4861527;29;20042;-55
2023/08/05 05:02:54;;;;;;;12.05;7.88;;;15.00;99.90;;;;;;4861136;29;20473;-54
2023/08/05 05:05:21;;;;;;;11.52;8.65;;;15.00;99.90;;;;;;4861150;29;20080;-52
2023/08/05 05:07:47;;;;;;;12.88;8.27;;;15.00;99.90;;;;;;4861140;29;20046;-53
2023/08/05 05:10:14;;;;;;;12.75;8.50;;;15.00;99.90;;;;;;4861385;29;20049;-56
2023/08/05 05:12:41;;;;;;;12.00;7.95;;;15.00;99.90;;;;;;4861021;29;20060;-53
2023/08/05 05:15:08;;;;;;;14.80;8.95;;;15.00;99.90;;;;;;4860981;29;20060;-54
2023/08/05 05:17:34;;;;;;;15.77;8.75;;;15.00;99.90;;;;;;4861094;29;20489;-56
2023/08/05 05:20:01;;;;;;;11.77;8.70;;;15.10;99.90;;;;;;4860704;29;20084;-55
2023/08/05 05:22:28;;;;;;;13.63;9.60;;;15.10;99.90;;;;;;4860880;29;20392;-55
2023/08/05 05:24:55;;;;;;;11.65;8.93;;;15.00;99.90;;;;;;4861051;29;20120;-56
2023/08/05 05:27:22;;;;;;;12.05;8.82;;;15.00;99.90;;;;;;4874942;29;20056;-54
2023/08/05 05:29:48;;;;;;;13.70;9.70;;;15.00;99.90;;;;;;4861101;29;20135;-57
2023/08/05 05:32:15;;;;;;;13.10;9.80;;;15.00;99.90;;;;;;4860602;29;20057;-56
2023/08/05 05:34:42;;;;;;;12.65;9.10;;;15.10;99.90;;;;;;4860780;29;20051;-55
2023/08/05 05:37:09;;;;;;;14.75;9.70;;;15.10;99.90;;;;;;4861028;29;20049;-57
2023/08/05 05:39:35;;;;;;;16.27;9.15;;;15.20;99.90;;;;;;4861048;29;20431;-50
2023/08/05 05:42:02;;;;;;;14.13;9.40;;;15.30;99.90;;;;;;4860824;29;20038;-53
2023/08/05 05:44:29;;;;;;;16.25;9.70;;;15.40;99.90;;;;;;4861111;29;20056;-57
2023/08/05 05:46:56;;;;;;;15.85;10.43;;;15.40;99.90;;;;;;4860782;29;20393;-54
2023/08/05 05:49:23;;;;;;;16.58;9.45;;;15.40;99.90;;;;;;4860498;29;20420;-53
2023/08/05 05:51:50;;;;;;;13.45;9.82;;;15.40;99.90;;;;;;4860899;29;20073;-52
2023/08/05 05:54:17;;;;;;;16.13;10.45;;;15.40;99.90;;;;;;4861547;29;20446;-53
2023/08/05 05:56:43;;;;;;;12.85;10.15;;;15.40;99.90;;;;;;4864132;29;20396;-53
2023/08/05 05:59:10;;;;;;;14.43;10.55;;;15.40;99.90;;;;;;4864448;29;20059;-57
2023/08/05 06:01:37;;;;;;;17.15;10.70;;;15.40;99.90;;;;;;4864037;29;20489;-55
2023/08/05 06:04:07;;;;;;;16.73;10.88;;;15.40;99.90;;;;;;4864418;29;20064;-53
2023/08/05 06:06:35;;;;;;;16.27;11.48;;;15.30;99.90;;;;;;4863975;29;20049;-55
2023/08/05 06:09:03;;;;;;;20.88;10.48;;;15.30;99.90;;;;;;4863938;29;20533;-51
2023/08/05 06:11:32;;;;;;;16.52;11.43;;;15.30;99.90;;;;;;4864059;29;20403;-54
2023/08/05 06:13:59;;;;;;;17.38;10.80;;;15.40;99.90;;;;;;4864229;29;20139;-50
2023/08/05 06:16:26;;;;;;;13.70;10.70;;;15.30;99.90;;;;;;4863977;29;20056;-55
2023/08/05 06:18:53;;;;;;;18.52;10.77;;;15.40;99.90;;;;;;4863016;29;20052;-53
2023/08/05 06:21:19;;;;;;;13.60;10.00;;;15.30;99.90;;;;;;4863609;29;20136;-54
2023/08/05 06:23:49;;;;;;;19.30;10.73;;;15.30;99.90;;;;;;4862698;29;20133;-49
2023/08/05 06:26:16;;;;;;;19.58;11.15;;;15.40;99.90;;;;;;4864009;29;20057;-54
2023/08/05 06:28:43;;;;;;;15.75;10.30;;;15.40;99.90;;;;;;4863964;29;20056;-54
2023/08/05 06:31:09;;;;;;;15.25;10.45;;;15.30;99.90;;;;;;4863350;29;20044;-53
2023/08/05 06:33:36;;;;;;;14.43;11.00;;;15.30;99.90;;;;;;4863607;29;20193;-56
2023/08/05 06:36:03;;;;;;;17.73;11.15;;;15.30;99.90;;;;;;4863268;29;20128;-52
2023/08/05 06:38:30;;;;;;;13.57;10.30;;;15.30;99.90;;;;;;4863465;29;20046;-47
2023/08/05 06:40:56;;;;;;;14.70;10.32;;;15.30;99.90;;;;;;4863655;29;20041;-56
2023/08/05 06:43:23;;;;;;;16.80;10.93;;;15.30;99.90;;;;;;4863299;29;20072;-54
2023/08/05 06:45:52;;;;;;;12.45;10.40;;;15.30;99.90;;;;;;4863578;29;20041;-54
2023/08/05 06:48:19;;;;;;;15.95;10.43;;;15.30;99.90;;;;;;4863429;29;20084;-56
2023/08/05 06:50:46;;;;;;;17.80;11.00;;;15.20;99.90;;;;;;4863144;29;20041;-56
2023/08/05 06:53:13;;;;;;;15.60;10.98;;;15.20;99.90;;;;;;4846842;29;20057;-57
2023/08/05 06:55:39;;;;;;;14.52;10.48;;;15.20;99.90;;;;;;4862814;29;20061;-49
2023/08/05 06:58:06;;;;;;;15.35;11.45;;;15.20;99.90;;;;;;4863222;29;20065;-56
2023/08/05 07:00:33;;;;;;;14.82;11.57;;;15.10;99.90;;;;;;4863144;29;20041;-56
2023/08/05 07:03:01;;;;;;;15.32;12.32;;;15.10;99.90;;;;;;4863053;29;20053;-56
2023/08/05 07:05:29;;;;;;;14.82;11.52;;;15.00;99.90;;;;;;4862384;29;20042;-53
2023/08/05 07:07:56;;;;;;;15.98;11.85;;;15.00;99.90;;;;;;4862734;29;20042;-53
2023/08/05 07:10:23;;;;;;;17.00;12.57;;;15.10;99.90;;;;;;4863186;29;20106;-58
2023/08/05 07:12:49;;;;;;;16.83;12.50;;;15.10;99.90;;;;;;4862943;29;20125;-54
2023/08/05 07:15:16;;;;;;;22.48;12.15;;;15.20;99.90;;;;;;4862945;29;20050;-57
2023/08/05 07:17:43;;;;;;;15.90;11.55;;;15.20;99.90;;;;;;4862763;29;20110;-55
2023/08/05 07:20:10;;;;;;;14.35;11.57;;;15.30;99.90;;;;;;4862514;29;20393;-52
2023/08/05 07:22:36;;;;;;;17.42;11.75;;;15.30;99.90;;;;;;4862564;29;20373;-55
2023/08/05 07:25:04;;;;;;;15.73;11.40;;;15.40;99.90;;;;;;4862801;29;20096;-56
2023/08/05 07:27:31;;;;;;;16.77;10.65;;;15.50;99.90;;;;;;4862756;29;20443;-50
2023/08/05 07:29:57;;;;;;;16.38;10.93;;;15.60;99.90;;;;;;4862464;29;20037;-51
2023/08/05 07:32:24;;;;;;;14.10;10.25;;;15.60;99.90;;;;;;4862763;29;20053;-52
2023/08/05 07:34:52;;;;;;;14.35;10.70;;;15.70;99.90;;;;;;4862689;29;20057;-53
2023/08/05 07:37:19;;;;;;;15.27;10.50;;;15.70;99.90;;;;;;4862026;29;20041;-53
2023/08/05 07:39:48;;;;;;;14.85;10.25;;;15.80;99.90;;;;;;4862285;29;20045;-53
2023/08/05 07:42:15;;;;;;;13.68;10.27;;;15.80;99.90;;;;;;4851292;29;20129;-51
2023/08/05 07:44:42;;;;;;;18.52;10.57;;;15.80;99.90;;;;;;4843617;29;20505;-55
2023/08/05 07:47:09;;;;;;;14.88;10.85;;;15.80;99.90;;;;;;4843788;29;20063;-56
2023/08/05 07:49:37;;;;;;;14.63;10.90;;;15.80;99.90;;;;;;4843752;29;20073;-56
2023/08/05 07:52:04;;;;;;;16.33;11.57;;;15.80;99.90;;;;;;4843844;29;20099;-54
2023/08/05 07:54:31;;;;;;;16.98;10.25;;;15.80;99.90;;;;;;4843792;29;20054;-54
2023/08/05 07:56:58;;;;;;;13.70;10.20;;;15.90;99.90;;;;;;4843606;29;20136;-52
2023/08/05 07:59:27;;;;;;;15.25;10.95;;;15.90;99.90;;;;;;4843757;29;20054;-58
2023/08/05 08:01:55;;;;;;;12.88;9.77;;;15.90;99.90;;;;;;4840756;29;20042;-54
2023/08/05 08:04:22;;;;;;;17.52;11.35;;;15.80;99.90;;;;;;4827610;29;20420;-57
2023/08/05 08:06:48;;;;;;;16.70;10.43;;;15.80;99.90;;;;;;4825229;29;20050;-55
2023/08/05 08:09:15;;;;;;;17.80;10.38;;;15.80;99.90;;;;;;4825532;29;20045;-52
2023/08/05 08:11:42;;;;;;;17.38;10.85;;;15.70;99.90;;;;;;4824943;29;20141;-52
2023/08/05 08:14:09;;;;;;;15.00;10.63;;;15.70;99.90;;;;;;4825164;29;20383;-57
2023/08/05 08:16:35;;;;;;;14.40;11.10;;;15.70;99.90;;;;;;4824777;29;20054;-54
2023/08/05 08:19:04;;;;;;;13.05;9.40;;;15.60;99.90;;;;;;4825120;29;20077;-53
2023/08/05 08:21:31;;;;;;;17.55;11.05;;;15.50;99.90;;;;;;4838747;29;20088;-52
2023/08/05 08:23:58;;;;;;;14.77;10.85;;;15.40;99.90;;;;;;4825230;29;20051;-54
2023/08/05 08:26:25;;;;;;;18.52;10.85;;;15.30;99.90;;;;;;4824990;29;20070;-55
2023/08/05 08:28:52;;;;;;;17.70;11.52;;;15.20;99.90;;;;;;4825116;29;20466;-57
2023/08/05 08:31:18;;;;;;;19.10;11.48;;;15.20;99.90;;;;;;4824934;29;20102;-53
2023/08/05 08:33:45;;;;;;;18.30;11.38;;;15.20;99.90;;;;;;4825007;29;20474;-55
2023/08/05 08:36:12;;;;;;;14.40;11.07;;;15.20;99.90;;;;;;4824946;29;20402;-52
2023/08/05 08:38:39;;;;;;;12.93;9.45;;;15.30;99.90;;;;;;4825147;29;20133;-54
2023/08/05 08:41:05;;;;;;;15.43;10.05;;;15.30;99.90;;;;;;4824977;29;20447;-56
2023/08/05 08:43:32;;;;;;;14.63;9.80;;;15.30;99.90;;;;;;4824882;29;20398;-54
2023/08/05 08:45:59;;;;;;;14.05;9.15;;;15.40;99.90;;;;;;4824757;29;20053;-52
2023/08/05 08:48:26;;;;;;;12.77;9.02;;;15.50;99.90;;;;;;4824701;29;20042;-55
2023/08/05 08:50:53;;;;;;;12.68;8.73;;;15.60;99.90;;;;;;4843019;29;20049;-52
2023/08/05 08:53:23;;;;;;;15.07;8.73;;;15.70;99.90;;;;;;4842686;29;20141;-57
2023/08/05 08:55:50;;;;;;;13.52;8.27;;;15.70;99.90;;;;;;4842440;29;20062;-57
2023/08/05 08:58:16;;;;;;;12.00;8.20;;;15.70;99.90;;;;;;4842617;29;20053;-54
2023/08/05 09:00:43;;;;;;;12.15;7.93;;;15.70;99.90;;;;;;4842350;29;20140;-53
2023/08/05 09:03:10;;;;;;;12.93;7.55;;;15.60;99.90;;;;;;4841064;29;20053;-51
2023/08/05 09:05:37;;;;;;;10.02;7.22;;;15.50;99.90;;;;;;4848474;29;20052;-56
2023/08/05 09:08:04;;;;;;;11.90;6.93;;;15.40;99.90;;;;;;4841811;29;20136;-53
2023/08/05 09:10:31;;;;;;;10.15;6.32;;;15.50;99.90;;;;;;4842052;29;20052;-55
2023/08/05 09:12:58;;;;;;;10.45;6.05;;;15.60;99.90;;;;;;4844671;29;20136;-52
2023/08/05 09:15:25;;;;;;;10.55;5.65;;;15.60;99.90;;;;;;4843105;29;20402;-53
2023/08/05 09:17:52;;;;;;;9.73;5.05;;;15.50;99.90;;;;;;4842236;29;20487;-51
2023/08/05 09:20:22;;;;;;;7.80;5.18;;;15.50;99.90;;;;;;4841615;29;20197;-53
2023/08/05 09:22:48;;;;;;;11.23;4.70;;;15.50;99.90;;;;;;4842249;29;20443;-54
2023/08/05 09:25:15;;;;;;;7.95;4.47;;;15.40;99.90;;;;;;4841497;29;20049;-52
2023/08/05 09:27:42;;;;;;;8.85;5.13;;;15.40;99.90;;;;;;4841945;29;20050;-52
2023/08/05 09:30:09;;;;;;;6.43;4.55;;;15.40;99.90;;;;;;4858383;29;20084;-50
2023/08/05 09:32:36;;;;;;;7.07;4.05;;;15.50;99.90;;;;;;4845433;29;20396;-54
2023/08/05 09:35:03;;;;;;;6.28;3.42;;;15.50;99.90;;;;;;4845700;29;20054;-47
2023/08/05 09:37:30;;;;;;;6.15;3.72;;;15.60;99.90;;;;;;4845029;29;20052;-52
2023/08/05 09:39:57;;;;;;;5.95;3.70;;;15.50;99.90;;;;;;4845784;29;20080;-47
2023/08/05 09:42:28;;;;;;;6.57;3.55;;;15.40;99.90;;;;;;4845496;29;20046;-48
2023/08/05 09:44:57;;;;;;;6.72;3.85;;;15.30;99.90;;;;;;4845170;29;20041;-51
2023/08/05 09:47:24;;;;;;;6.53;3.70;;;15.20;99.90;;;;;;4845426;29;20052;-47
2023/08/05 09:49:51;;;;;;;7.97;4.30;;;15.10;99.90;;;;;;4845026;29;20046;-48
2023/08/05 09:52:18;;;;;;;8.43;3.78;;;15.20;99.90;;;;;;4845379;29;20117;-49
2023/08/05 09:54:47;;;;;;;6.30;3.30;;;15.30;99.90;;;;;;4844945;29;20078;-47
2023/08/05 09:57:14;;;;;;;8.63;3.22;;;15.40;99.90;;;;;;4859111;29;20053;-48
2023/08/05 09:59:42;;;;;;;6.22;3.80;;;15.60;99.90;;;;;;4845504;29;20052;-48
2023/08/05 10:02:09;;;;;;;6.95;2.90;;;15.70;99.90;;;;;;4844825;29;20042;-55
2023/08/05 10:04:35;;;;;;;4.03;2.38;;;15.70;99.90;;;;;;4845311;29;20050;-50
2023/08/05 10:07:03;;;;;;;4.35;2.60;;;15.80;99.90;;;;;;4844989;29;20136;-49
2023/08/05 10:09:30;;;;;;;8.43;2.67;;;15.80;99.90;;;;;;4845241;29;20121;-49
2023/08/05 10:11:56;;;;;;;4.90;2.35;;;15.90;99.90;;;;;;4845239;29;20046;-50
2023/08/05 10:14:23;;;;;;;6.75;2.42;;;15.90;99.90;;;;;;4845275;29;20057;-49
2023/08/05 10:16:50;;;;;;;5.47;2.30;;;16.10;99.90;;;;;;4845010;29;20046;-51
2023/08/05 10:19:17;;;;;;;3.33;2.03;;;16.20;99.90;;;;;;4844756;29;20044;-47
2023/08/05 10:21:45;;;;;;;4.70;2.08;;;16.50;99.90;;;;;;4844814;29;20041;-50
2023/08/05 10:24:12;;;;;;;4.72;2.10;;;16.80;99.90;;;;;;4858958;29;20473;-52
2023/08/05 10:26:38;;;;;;;3.85;2.20;;;17.00;99.90;;;;;;4844587;29;20053;-54
2023/08/05 10:29:05;;;;;;;3.22;1.90;;;17.10;99.90;;;;;;4845050;29;20042;-53
2023/08/05 10:31:34;;;;;;;4.93;1.83;;;17.20;99.90;;;;;;4845019;29;20159;-51
2023/08/05 10:34:00;;;;;;;3.70;1.80;;;17.30;99.90;;;;;;4844308;29;20058;-52
2023/08/05 10:36:27;;;;;;;3.42;1.77;;;17.20;99.90;;;;;;4845393;29;20357;-52
2023/08/05 10:38:54;;;;;;;3.17;1.80;;;17.10;99.90;;;;;;4844598;29;20073;-49
2023/08/05 10:41:21;;;;;;;2.83;1.70;;;17.00;99.90;;;;;;4844662;29;20050;-51
2023/08/05 10:43:47;;;;;;;3.13;1.65;;;16.70;99.90;;;;;;4845219;29;20453;-54
2023/08/05 10:46:14;;;;;;;4.45;1.70;;;16.60;99.90;;;;;;4843701;29;20064;-50
2023/08/05 10:48:44;;;;;;;2.17;1.35;;;16.50;99.90;;;;;;4843638;29;20057;-50
2023/08/05 10:51:11;;;;;;;2.58;1.48;;;16.40;99.90;;;;;;4857490;29;20438;-48
2023/08/05 10:53:38;;;;;;;2.53;1.58;;;16.40;99.90;;;;;;4843433;29;20106;-53
2023/08/05 10:56:05;;;;;;;2.25;1.30;;;16.50;99.90;;;;;;4843235;29;20088;-54
2023/08/05 10:58:31;;;;;;;3.90;1.48;;;16.50;99.90;;;;;;4857574;29;20684;-54
2023/08/05 11:00:58;;;;;;;2.33;1.50;;;16.60;99.90;;;;;;4843962;29;20413;-56
2023/08/05 11:03:25;;;;;;;2.35;1.50;;;16.80;99.90;;;;;;4844466;29;20042;-49
2023/08/05 11:05:52;;;;;;;2.45;1.20;;;17.00;99.90;;;;;;4844711;29;20065;-51
2023/08/05 11:08:19;;;;;;;3.55;1.20;;;17.10;99.90;;;;;;4844956;29;20497;-51
2023/08/05 11:10:46;;;;;;;1.88;1.00;;;17.40;99.90;;;;;;4844977;29;20034;-51
2023/08/05 11:13:13;;;;;;;1.73;0.80;;;17.60;99.90;;;;;;4844791;29;20050;-49
2023/08/05 11:15:40;;;;;;;2.60;0.98;;;17.60;99.90;;;;;;4844254;29;20520;-52
2023/08/05 11:18:07;;;;;;;2.10;1.10;;;17.80;99.90;;;;;;4844258;29;20058;-54
2023/08/05 11:20:34;;;;;;;1.83;0.90;;;17.90;99.90;;;;;;4844445;29;20470;-55
2023/08/05 11:23:01;;;;;;;2.55;0.70;;;18.00;99.90;;;;;;4843216;29;20054;-50
2023/08/05 11:25:28;;;;;;;2.00;0.77;;;18.10;99.90;;;;;;4844469;29;20058;-52
2023/08/05 11:27:56;;;;;;;1.23;0.50;;;18.30;99.90;;;;;;4844139;29;20058;-54
2023/08/05 11:30:22;;;;;;;1.77;0.70;;;18.50;99.90;;;;;;4844264;29;20050;-54
2023/08/05 11:32:50;;;;;;;2.95;0.60;;;18.60;99.90;;;;;;4844183;29;20054;-55
2023/08/05 11:35:16;;;;;;;1.10;0.50;;;18.50;99.90;;;;;;4844490;29;20109;-54
2023/08/05 11:37:43;;;;;;;1.08;0.50;;;18.50;99.90;;;;;;4844065;29;20060;-51
2023/08/05 11:40:10;;;;;;;0.82;0.50;;;18.50;99.90;;;;;;4844385;29;20049;-50
2023/08/05 11:42:39;;;;;;;1.40;0.60;;;18.50;99.90;;;;;;4843931;29;20085;-51
2023/08/05 11:45:06;;;;;;;1.58;0.75;;;18.40;99.90;;;;;;4844186;29;20098;-48
2023/08/05 11:47:32;;;;;;;0.82;0.40;;;18.40;99.90;;;;;;4843908;29;20398;-56
2023/08/05 11:49:59;;;;;;;1.27;0.60;;;18.40;99.90;;;;;;4844010;29;20482;-50
2023/08/05 11:52:26;;;;;;;0.85;0.40;;;18.40;99.90;;;;;;4843383;29;20050;-52
2023/08/05 11:54:53;;;;;;;1.10;0.40;;;18.40;99.90;;;;;;4843894;29;20058;-51
2023/08/05 11:57:20;;;;;;;0.70;0.30;;;18.40;99.90;;;;;;4843978;29;20525;-56
2023/08/05 11:59:47;;;;;;;0.88;0.38;;;18.40;99.90;;;;;;4843616;29;20046;-51
2023/08/05 12:02:15;;;;;;;0.73;0.30;;;18.30;99.90;;;;;;4843770;29;20439;-54
2023/08/05 12:04:42;;;;;;;0.57;0.30;;;18.30;99.90;;;;;;4843894;29;20042;-57
2023/08/05 12:07:09;;;;;;;2.22;0.50;;;18.30;99.90;;;;;;4843763;29;20471;-54
2023/08/05 12:09:36;;;;;;;0.80;0.30;;;18.30;99.90;;;;;;4843509;29;20038;-55
2023/08/05 12:12:03;;;;;;;1.13;0.45;;;18.20;99.90;;;;;;4843206;29;20050;-52
2023/08/05 12:14:29;;;;;;;1.10;0.50;;;18.10;99.90;;;;;;4843538;29;20066;-54
2023/08/05 12:16:59;;;;;;;1.05;0.50;;;17.90;99.90;;;;;;4843498;29;20042;-54
2023/08/05 12:19:26;;;;;;;1.13;0.43;;;17.90;99.90;;;;;;4843779;29;20070;-53
2023/08/05 12:21:53;;;;;;;2.10;0.50;;;17.90;99.90;;;;;;4843807;29;20213;-50
2023/08/05 12:24:20;;;;;;;3.00;0.85;;;17.90;99.90;;;;;;4843318;29;20053;-52
2023/08/05 12:26:46;;;;;;;2.75;0.80;;;17.90;99.90;;;;;;4843403;29;20042;-51
2023/08/05 12:29:13;;;;;;;3.13;0.82;;;17.90;99.90;;;;;;4843277;29;20078;-53
2023/08/05 12:31:41;;;;;;;5.57;0.98;;;17.90;99.90;;;;;;4842969;29;20045;-50
2023/08/05 12:34:08;;;;;;;3.92;1.10;;;17.90;99.90;;;;;;4843187;29;20141;-52
2023/08/05 12:36:35;;;;;;;2.70;0.80;;;17.90;99.90;;;;;;4843366;29;20052;-55
2023/08/05 12:39:01;;;;;;;3.42;0.88;;;18.00;99.90;;;;;;4843042;29;20046;-48